Time;durP1;ratioP1;P1;durP2;ratioP2;P2;SDS_P1;SDS_P2;PMS_P1;PMS_P2;Temp;Humidity;BMP_temperature;BMP_pressure;BME280_temperature;BME280_humidity;BME280_pressure;Samples;Min_cycle;Max_cycle;Signal;HPM_P1;HPM_P2
2021/12/20 00:01:56;;;;;;;22.40;13.13;;;-0.40;99.90;;;;;;5032489;28;20214;-74
2021/12/20 00:04:22;;;;;;;27.47;15.40;;;-0.30;99.90;;;;;;5016561;28;20175;-74
2021/12/20 00:06:48;;;;;;;27.63;14.27;;;-0.30;99.90;;;;;;5035698;28;20575;-74
2021/12/20 00:09:14;;;;;;;21.40;14.33;;;-0.40;99.90;;;;;;5036391;28;20611;-73
2021/12/20 00:11:39;;;;;;;23.03;14.20;;;-0.40;99.90;;;;;;5035680;28;20193;-73
2021/12/20 00:14:05;;;;;;;22.60;13.30;;;-0.40;99.90;;;;;;5018166;28;20592;-74
2021/12/20 00:16:31;;;;;;;23.07;13.43;;;-0.40;99.90;;;;;;5035911;28;20181;-73
2021/12/20 00:18:57;;;;;;;19.40;13.00;;;-0.30;99.90;;;;;;5035758;28;20254;-73
2021/12/20 00:21:22;;;;;;;21.73;13.43;;;-0.20;99.90;;;;;;5035556;28;20190;-73
2021/12/20 00:23:48;;;;;;;21.57;13.03;;;-0.20;99.90;;;;;;5035646;28;20204;-73
2021/12/20 00:26:14;;;;;;;20.07;13.53;;;-0.20;99.90;;;;;;5035584;28;20209;-74
2021/12/20 00:28:40;;;;;;;19.40;12.90;;;-0.10;99.90;;;;;;5018414;28;20181;-74
2021/12/20 00:31:06;;;;;;;18.47;11.47;;;0.00;99.90;;;;;;5017701;28;20201;-74
2021/12/20 00:33:35;;;;;;;18.20;11.77;;;0.00;99.90;;;;;;5035478;28;20171;-74
2021/12/20 00:36:07;;;;;;;20.47;11.80;;;0.00;99.90;;;;;;5035248;28;20209;-74
2021/12/20 00:41:17;;;;;;;17.33;11.67;;;0.10;99.90;;;;;;5035547;28;20247;-73
2021/12/20 00:43:43;;;;;;;19.87;12.33;;;0.10;99.90;;;;;;5035403;28;20253;-74
2021/12/20 00:46:09;;;;;;;16.77;11.57;;;0.20;99.90;;;;;;5035125;28;20186;-73
2021/12/20 00:48:34;;;;;;;22.07;13.40;;;0.10;99.90;;;;;;5035278;28;20167;-74
2021/12/20 00:51:00;;;;;;;20.27;12.70;;;0.10;99.90;;;;;;5034871;28;20278;-74
2021/12/20 00:53:26;;;;;;;27.23;13.83;;;0.50;99.90;;;;;;5035156;28;20550;-74
2021/12/20 00:55:51;;;;;;;23.70;14.67;;;0.00;99.90;;;;;;5035088;28;20554;-74
2021/12/20 00:58:18;;;;;;;25.90;14.27;;;-0.10;99.90;;;;;;5034905;28;20607;-74
2021/12/20 01:00:47;;;;;;;25.43;14.33;;;-0.10;99.90;;;;;;5034419;28;20697;-74
2021/12/20 01:03:15;;;;;;;24.83;14.93;;;-0.10;99.90;;;;;;5033551;28;20171;-74
2021/12/20 01:05:41;;;;;;;21.53;13.77;;;0.00;99.90;;;;;;5034651;28;20171;-73
2021/12/20 01:08:08;;;;;;;24.00;13.63;;;0.00;99.90;;;;;;5033374;28;20694;-75
2021/12/20 01:10:37;;;;;;;21.87;14.07;;;0.00;99.90;;;;;;5033206;28;20201;-74
2021/12/20 01:13:05;;;;;;;23.50;13.23;;;0.10;99.90;;;;;;5034818;28;20171;-74
2021/12/20 01:15:38;;;;;;;22.60;13.53;;;0.10;99.90;;;;;;5034652;28;20265;-74
2021/12/20 01:18:05;;;;;;;27.63;13.10;;;0.20;99.90;;;;;;5016956;28;20174;-74
2021/12/20 01:20:32;;;;;;;21.60;13.47;;;0.00;99.90;;;;;;5016507;28;20194;-74
2021/12/20 01:22:58;;;;;;;23.97;14.80;;;-0.10;99.90;;;;;;5015916;28;20200;-74
2021/12/20 01:25:24;;;;;;;26.00;14.70;;;-0.10;99.90;;;;;;5032456;28;20178;-74
2021/12/20 01:27:51;;;;;;;28.43;14.80;;;0.00;99.90;;;;;;5034495;28;20336;-74
2021/12/20 01:30:19;;;;;;;21.70;13.10;;;0.10;99.90;;;;;;5034544;28;20195;-74
2021/12/20 01:32:45;;;;;;;24.50;13.83;;;0.10;99.90;;;;;;5034311;28;20182;-74
2021/12/20 01:35:11;;;;;;;26.10;14.00;;;0.20;99.90;;;;;;5032904;28;20549;-75
2021/12/20 01:37:37;;;;;;;24.67;13.93;;;0.30;99.90;;;;;;5034187;28;20170;-75
2021/12/20 01:40:05;;;;;;;23.20;13.63;;;0.30;99.90;;;;;;5016506;28;20198;-74
2021/12/20 01:42:33;;;;;;;25.50;14.30;;;0.40;99.90;;;;;;5034112;28;20175;-74
2021/12/20 01:44:59;;;;;;;26.20;14.10;;;0.50;99.90;;;;;;5034210;28;20261;-74
2021/12/20 01:47:34;;;;;;;25.30;14.03;;;0.50;99.90;;;;;;5033989;28;20281;-75
2021/12/20 01:50:17;;;;;;;23.43;14.33;;;0.50;99.90;;;;;;5033869;28;20193;-75
2021/12/20 01:52:44;;;;;;;20.80;13.77;;;0.50;99.90;;;;;;5016353;28;20170;-74
2021/12/20 01:55:13;;;;;;;25.63;14.57;;;0.60;99.90;;;;;;5034143;28;20518;-73
2021/12/20 01:57:38;;;;;;;27.30;14.33;;;0.60;99.90;;;;;;5033743;28;20206;-75
2021/12/20 02:00:08;;;;;;;23.37;13.70;;;0.60;99.90;;;;;;5016188;28;20241;-74
2021/12/20 02:02:33;;;;;;;29.17;14.87;;;0.60;99.90;;;;;;5033733;28;20205;-74
2021/12/20 02:05:10;;;;;;;27.23;14.93;;;0.60;99.90;;;;;;5032442;28;20595;-77
2021/12/20 02:07:50;;;;;;;26.37;15.07;;;0.60;99.90;;;;;;5033808;28;20189;-74
2021/12/20 02:10:17;;;;;;;27.00;14.80;;;0.60;99.90;;;;;;5034024;28;20178;-74
2021/12/20 02:12:43;;;;;;;29.10;14.80;;;0.50;99.90;;;;;;5015911;28;20262;-74
2021/12/20 02:15:09;;;;;;;25.33;14.67;;;0.60;99.90;;;;;;5033561;28;20174;-74
2021/12/20 02:17:34;;;;;;;25.40;14.50;;;0.60;99.90;;;;;;5033589;28;20228;-74
2021/12/20 02:20:02;;;;;;;27.47;14.70;;;0.60;99.90;;;;;;5033512;28;20280;-74
2021/12/20 02:22:29;;;;;;;25.03;14.07;;;0.60;99.90;;;;;;5015927;28;20178;-74
2021/12/20 02:24:54;;;;;;;25.83;14.17;;;0.60;99.90;;;;;;5015781;28;20299;-75
2021/12/20 02:27:22;;;;;;;32.50;15.47;;;0.50;99.90;;;;;;5015100;28;20683;-74
2021/12/20 02:30:09;;;;;;;28.90;15.27;;;0.50;99.90;;;;;;5015631;28;20252;-73
2021/12/20 02:38:25;;;;;;;30.20;15.67;;;0.30;99.90;;;;;;5033363;28;20277;-74
2021/12/20 02:41:25;;;;;;;25.80;15.23;;;0.40;99.90;;;;;;5033135;28;20541;-74
2021/12/20 02:43:55;;;;;;;30.50;15.57;;;0.50;99.90;;;;;;5033290;28;20261;-74
2021/12/20 02:48:57;;;;;;;25.93;14.83;;;0.50;99.90;;;;;;5033451;28;20172;-74
2021/12/20 02:51:25;;;;;;;23.17;13.60;;;0.50;99.90;;;;;;5032816;28;20728;-74
2021/12/20 02:53:52;;;;;;;22.13;13.70;;;0.40;99.90;;;;;;5033040;28;20170;-74
2021/12/20 02:56:18;;;;;;;23.80;14.23;;;0.40;99.90;;;;;;5032929;28;20178;-74
2021/12/20 02:58:44;;;;;;;25.80;14.87;;;0.40;99.90;;;;;;5032515;28;20184;-75
2021/12/20 03:01:10;;;;;;;24.63;14.37;;;0.40;99.90;;;;;;5034463;28;20222;-71
2021/12/20 03:03:36;;;;;;;31.93;15.67;;;0.40;99.90;;;;;;5011793;28;20701;-71
2021/12/20 03:06:37;;;;;;;26.97;15.23;;;0.40;99.90;;;;;;5031148;28;20181;-71
2021/12/20 03:09:04;;;;;;;25.57;13.80;;;0.30;99.90;;;;;;5029824;28;20170;-71
2021/12/20 03:11:30;;;;;;;26.03;14.33;;;0.40;99.90;;;;;;5133281;23;20630;-71
2021/12/20 03:14:08;;;;;;;26.50;15.13;;;0.40;99.90;;;;;;5012509;28;20170;-71
2021/12/20 03:16:34;;;;;;;28.93;14.90;;;0.40;99.90;;;;;;5028217;28;20658;-73
2021/12/20 03:19:02;;;;;;;27.43;14.67;;;0.40;99.90;;;;;;5030551;28;20210;-72
2021/12/20 03:21:27;;;;;;;31.70;15.97;;;0.30;99.90;;;;;;4999207;28;20214;-73
2021/12/20 03:23:53;;;;;;;26.50;14.80;;;0.30;99.90;;;;;;4995472;28;20180;-72
2021/12/20 03:26:19;;;;;;;30.47;15.50;;;0.30;99.90;;;;;;4991591;28;20200;-72
2021/12/20 03:28:44;;;;;;;30.10;15.87;;;0.30;99.90;;;;;;4995788;28;20167;-73
2021/12/20 03:31:12;;;;;;;28.13;15.20;;;0.30;99.90;;;;;;4989932;28;20242;-73
2021/12/20 03:33:38;;;;;;;26.53;14.47;;;0.40;99.90;;;;;;4979331;28;20191;-71
2021/12/20 03:36:04;;;;;;;29.07;15.50;;;0.30;99.90;;;;;;4992410;28;20528;-72
2021/12/20 03:38:29;;;;;;;31.23;14.73;;;0.30;99.90;;;;;;4994624;28;20681;-74
2021/12/20 03:40:55;;;;;;;32.53;16.17;;;0.40;99.90;;;;;;4981677;28;20195;-72
2021/12/20 03:43:24;;;;;;;27.93;14.67;;;0.40;99.90;;;;;;4979230;28;20180;-73
2021/12/20 03:45:51;;;;;;;30.93;16.47;;;0.40;99.90;;;;;;4997461;28;20540;-73
2021/12/20 03:48:20;;;;;;;28.07;15.03;;;0.40;99.90;;;;;;4995892;28;20259;-71
2021/12/20 03:50:45;;;;;;;26.73;14.60;;;0.50;99.90;;;;;;4978453;28;20196;-72
2021/12/20 03:53:11;;;;;;;27.03;15.27;;;0.40;99.90;;;;;;5019590;28;20176;-73
2021/12/20 03:55:37;;;;;;;22.27;13.67;;;0.40;99.90;;;;;;5014430;28;20171;-71
2021/12/20 03:58:02;;;;;;;28.33;15.57;;;0.40;99.90;;;;;;4996656;28;20209;-72
2021/12/20 04:00:28;;;;;;;24.47;14.50;;;0.50;99.90;;;;;;5013177;28;20242;-73
2021/12/20 04:02:54;;;;;;;28.07;14.97;;;0.40;99.90;;;;;;5000999;28;20646;-73
2021/12/20 04:05:19;;;;;;;31.27;15.40;;;0.50;99.90;;;;;;4998616;28;20171;-73
2021/12/20 04:07:45;;;;;;;22.60;13.77;;;0.50;99.90;;;;;;5014706;28;20553;-73
2021/12/20 04:10:11;;;;;;;27.87;15.30;;;0.60;99.90;;;;;;5035264;23;20244;-72
2021/12/20 04:12:36;;;;;;;28.53;14.03;;;0.60;99.90;;;;;;5055943;28;20185;-72
2021/12/20 04:15:03;;;;;;;28.33;15.13;;;0.70;99.90;;;;;;5038113;28;20556;-71
2021/12/20 04:17:29;;;;;;;25.80;13.67;;;0.70;99.90;;;;;;5038077;28;20178;-71
2021/12/20 04:19:54;;;;;;;28.57;15.17;;;0.60;99.90;;;;;;5037893;28;20204;-74
2021/12/20 04:22:20;;;;;;;23.53;13.57;;;0.60;99.90;;;;;;5055576;28;20208;-74
2021/12/20 04:24:46;;;;;;;25.90;13.87;;;0.60;99.90;;;;;;5024194;28;20179;-74
2021/12/20 04:27:12;;;;;;;24.53;13.73;;;0.60;99.90;;;;;;5033741;28;20281;-72
2021/12/20 04:29:38;;;;;;;26.27;13.57;;;0.60;99.90;;;;;;5016126;28;20902;-71
2021/12/20 04:32:04;;;;;;;23.97;14.17;;;0.60;99.90;;;;;;5017400;28;20221;-72
2021/12/20 04:34:30;;;;;;;24.10;14.50;;;0.60;99.90;;;;;;5017859;28;20202;-72
2021/12/20 04:36:56;;;;;;;28.77;14.23;;;0.70;99.90;;;;;;5018046;28;20635;-71
2021/12/20 04:39:27;;;;;;;29.03;15.33;;;0.60;99.90;;;;;;5017577;28;20253;-71
2021/12/20 04:41:52;;;;;;;24.00;14.83;;;0.60;99.90;;;;;;5017789;28;20178;-71
2021/12/20 04:44:18;;;;;;;25.13;13.37;;;0.60;99.90;;;;;;5035116;28;20618;-73
2021/12/20 04:46:44;;;;;;;24.60;13.97;;;0.60;99.90;;;;;;5030207;28;20190;-73
2021/12/20 04:49:10;;;;;;;22.83;13.87;;;0.60;99.90;;;;;;4999007;28;20163;-72
2021/12/20 04:51:38;;;;;;;19.03;13.03;;;0.70;99.90;;;;;;5016182;28;20710;-71
2021/12/20 04:54:04;;;;;;;23.63;12.47;;;0.70;99.90;;;;;;5015710;28;20177;-74
2021/12/20 04:56:30;;;;;;;20.70;13.43;;;0.70;99.90;;;;;;5019077;28;20547;-71
2021/12/20 04:58:56;;;;;;;24.57;13.17;;;0.90;99.90;;;;;;5015580;28;20255;-74
2021/12/20 05:01:21;;;;;;;19.10;12.60;;;0.80;99.90;;;;;;5020479;28;20210;-74
2021/12/20 05:03:47;;;;;;;22.27;13.33;;;0.80;99.90;;;;;;5030102;28;20177;-73
2021/12/20 05:06:13;;;;;;;20.37;12.87;;;0.80;99.90;;;;;;5013497;28;20731;-74
2021/12/20 05:08:54;;;;;;;18.73;12.93;;;0.80;99.90;;;;;;5031901;28;20248;-72
2021/12/20 05:11:20;;;;;;;20.00;13.23;;;0.80;99.90;;;;;;5013775;28;20217;-73
2021/12/20 05:13:46;;;;;;;24.50;14.13;;;0.80;99.90;;;;;;5029924;28;20277;-72
2021/12/20 05:16:12;;;;;;;23.17;12.97;;;0.80;99.90;;;;;;5029913;28;20643;-71
2021/12/20 05:18:38;;;;;;;21.63;11.93;;;0.80;99.90;;;;;;5014479;28;20181;-72
2021/12/20 05:21:03;;;;;;;19.87;13.13;;;0.80;99.90;;;;;;5031884;28;20311;-75
2021/12/20 05:23:29;;;;;;;23.80;13.20;;;0.70;99.90;;;;;;5014700;28;20677;-73
2021/12/20 05:25:55;;;;;;;19.67;12.63;;;0.70;99.90;;;;;;5032508;28;20182;-73
2021/12/20 05:28:21;;;;;;;22.03;12.97;;;0.60;99.90;;;;;;5034227;28;20174;-71
2021/12/20 05:30:50;;;;;;;20.30;13.77;;;0.60;99.90;;;;;;5030343;28;20190;-75
2021/12/20 05:33:16;;;;;;;23.47;13.53;;;0.60;99.90;;;;;;5033154;28;20191;-72
2021/12/20 05:35:41;;;;;;;24.17;13.37;;;0.60;99.90;;;;;;5035557;28;20670;-74
2021/12/20 05:38:07;;;;;;;18.47;13.67;;;0.60;99.90;;;;;;5036953;28;20201;-72
2021/12/20 05:40:33;;;;;;;21.33;12.77;;;0.70;99.90;;;;;;5045347;28;20679;-73
2021/12/20 05:42:58;;;;;;;23.37;14.00;;;0.70;99.90;;;;;;5013875;28;20266;-75
2021/12/20 05:45:24;;;;;;;17.80;12.50;;;0.70;99.90;;;;;;5001436;28;20666;-71
2021/12/20 05:47:50;;;;;;;17.47;13.10;;;0.70;99.90;;;;;;4999617;28;20186;-74
2021/12/20 05:50:17;;;;;;;18.47;12.77;;;0.80;99.90;;;;;;4997040;28;20255;-72
2021/12/20 05:52:43;;;;;;;19.40;13.53;;;0.90;99.90;;;;;;5010713;28;20182;-72
2021/12/20 05:55:09;;;;;;;21.90;13.57;;;0.80;99.90;;;;;;5033397;28;20167;-74
2021/12/20 05:57:36;;;;;;;20.17;12.80;;;0.80;99.90;;;;;;5014624;28;20182;-73
2021/12/20 06:00:05;;;;;;;17.73;12.47;;;0.80;99.90;;;;;;5033712;28;20230;-71
2021/12/20 06:02:32;;;;;;;20.57;13.30;;;0.90;99.90;;;;;;5033131;28;20174;-71
2021/12/20 06:04:58;;;;;;;18.87;13.87;;;0.90;99.90;;;;;;5016364;28;20227;-71
2021/12/20 06:07:23;;;;;;;21.10;13.93;;;0.80;99.90;;;;;;5015849;28;20194;-73
2021/12/20 06:09:49;;;;;;;22.17;13.90;;;0.80;99.90;;;;;;5033306;28;20230;-72
2021/12/20 06:12:15;;;;;;;22.13;13.83;;;1.20;99.90;;;;;;5035104;28;20166;-72
2021/12/20 06:14:41;;;;;;;25.13;14.47;;;0.70;99.90;;;;;;5042712;28;20656;-73
2021/12/20 06:17:07;;;;;;;27.33;15.50;;;0.70;99.90;;;;;;5039186;28;20183;-76
2021/12/20 06:19:33;;;;;;;23.47;14.63;;;0.70;99.90;;;;;;5017174;28;20327;-74
2021/12/20 06:21:59;;;;;;;21.33;14.53;;;0.80;99.90;;;;;;5025223;28;20269;-75
2021/12/20 06:24:25;;;;;;;21.50;13.73;;;0.80;99.90;;;;;;5019107;28;20190;-74
2021/12/20 06:26:51;;;;;;;23.47;14.60;;;0.90;99.90;;;;;;5014463;28;20682;-74
2021/12/20 06:29:22;;;;;;;22.47;13.90;;;0.90;99.90;;;;;;5034028;28;20188;-71
2021/12/20 06:31:47;;;;;;;18.07;12.80;;;0.80;99.90;;;;;;5019507;28;20277;-75
2021/12/20 06:34:13;;;;;;;22.17;15.63;;;0.80;99.90;;;;;;5042880;28;20698;-73
2021/12/20 06:36:39;;;;;;;23.97;15.40;;;0.90;99.90;;;;;;5032220;28;20192;-72
2021/12/20 06:39:05;;;;;;;25.50;16.07;;;0.90;99.90;;;;;;5032887;28;20261;-71
2021/12/20 06:41:31;;;;;;;23.87;14.77;;;0.90;99.90;;;;;;5033274;28;20250;-71
2021/12/20 06:43:57;;;;;;;23.10;14.33;;;0.80;99.90;;;;;;5013966;28;20775;-74
2021/12/20 06:46:25;;;;;;;23.30;15.07;;;0.80;99.90;;;;;;5013187;28;20276;-71
2021/12/20 06:48:51;;;;;;;22.70;14.57;;;0.80;99.90;;;;;;5014013;28;20177;-72
2021/12/20 06:51:17;;;;;;;26.37;15.27;;;0.80;99.90;;;;;;5031911;28;20186;-71
2021/12/20 06:53:43;;;;;;;22.83;14.27;;;0.70;99.90;;;;;;5032534;28;20182;-71
2021/12/20 06:56:09;;;;;;;26.40;15.80;;;0.80;99.90;;;;;;5032149;28;20181;-74
2021/12/20 06:58:35;;;;;;;24.83;15.67;;;0.80;99.90;;;;;;5014114;28;20615;-73
2021/12/20 07:01:01;;;;;;;18.77;13.87;;;0.80;99.90;;;;;;5032094;28;20214;-75
2021/12/20 07:03:26;;;;;;;23.63;14.57;;;0.90;99.90;;;;;;5032870;28;20681;-75
2021/12/20 07:05:52;;;;;;;23.97;15.63;;;0.90;99.90;;;;;;5015604;28;20553;-71
2021/12/20 07:08:18;;;;;;;24.13;14.93;;;0.90;99.90;;;;;;5031365;28;20248;-71
2021/12/20 07:10:43;;;;;;;26.50;14.90;;;1.00;99.90;;;;;;5032403;28;20210;-73
2021/12/20 07:13:10;;;;;;;23.83;14.23;;;1.00;99.90;;;;;;5027835;28;20176;-73
2021/12/20 07:15:37;;;;;;;21.77;13.87;;;1.10;99.90;;;;;;5034907;28;20205;-72
2021/12/20 07:18:03;;;;;;;20.40;13.23;;;1.00;99.90;;;;;;5037097;28;20299;-72
2021/12/20 07:20:29;;;;;;;21.70;14.63;;;1.10;99.90;;;;;;5036926;28;20200;-73
2021/12/20 07:22:54;;;;;;;18.47;13.90;;;1.00;99.90;;;;;;5035430;28;20178;-71
2021/12/20 07:25:21;;;;;;;22.27;13.80;;;1.00;99.90;;;;;;5036718;28;20178;-71
2021/12/20 07:27:52;;;;;;;21.17;13.37;;;0.90;99.90;;;;;;5036728;28;20201;-72
2021/12/20 07:30:19;;;;;;;24.50;14.47;;;0.90;99.90;;;;;;5035663;28;20277;-74
2021/12/20 07:32:45;;;;;;;23.17;13.27;;;1.00;99.90;;;;;;5029905;28;20179;-71
2021/12/20 07:35:12;;;;;;;20.53;13.57;;;0.90;99.90;;;;;;5036397;28;20542;-71
2021/12/20 07:37:38;;;;;;;21.57;14.87;;;0.90;99.90;;;;;;5016415;28;20182;-75
2021/12/20 07:40:05;;;;;;;24.07;15.10;;;1.00;99.90;;;;;;5034562;28;20202;-71
2021/12/20 07:42:31;;;;;;;26.07;14.83;;;1.00;99.90;;;;;;5015574;28;20528;-71
2021/12/20 07:44:57;;;;;;;24.93;15.07;;;1.00;99.90;;;;;;5016463;28;20184;-75
2021/12/20 07:47:23;;;;;;;25.13;14.53;;;0.90;99.90;;;;;;5013899;28;20198;-74
2021/12/20 07:49:49;;;;;;;21.53;13.90;;;1.00;99.90;;;;;;5035328;28;20647;-71
2021/12/20 07:52:15;;;;;;;24.07;14.53;;;1.00;99.90;;;;;;5034244;28;20178;-72
2021/12/20 07:54:40;;;;;;;26.20;15.80;;;0.90;99.90;;;;;;5012865;28;20228;-71
2021/12/20 07:57:06;;;;;;;27.10;15.60;;;1.00;99.90;;;;;;5014759;28;20170;-72
2021/12/20 07:59:32;;;;;;;28.03;16.33;;;1.00;99.90;;;;;;5017639;28;20243;-71
2021/12/20 10:12:21;;;;;;;25.00;14.60;;;2.20;99.90;;;;;;5027937;28;20236;-75
2021/12/20 10:14:56;;;;;;;23.43;13.97;;;2.10;99.90;;;;;;5033464;28;20201;-75
2021/12/20 10:17:25;;;;;;;24.87;13.47;;;2.20;99.90;;;;;;5015230;28;20304;-76
2021/12/20 10:19:52;;;;;;;26.73;14.63;;;2.30;99.90;;;;;;5020000;28;20244;-77
2021/12/20 10:22:30;;;;;;;24.27;14.90;;;2.20;99.90;;;;;;4994759;28;20183;-75
2021/12/20 10:24:59;;;;;;;22.37;13.93;;;2.70;99.90;;;;;;5017769;23;20236;-76
2021/12/20 10:27:29;;;;;;;24.13;14.83;;;2.20;99.90;;;;;;5028326;28;20210;-75
2021/12/20 10:29:55;;;;;;;22.23;13.20;;;2.20;99.90;;;;;;5004508;28;20179;-76
2021/12/20 10:32:40;;;;;;;22.87;14.27;;;2.30;99.90;;;;;;5032555;28;20185;-75
2021/12/20 10:35:24;;;;;;;26.37;14.63;;;2.40;99.90;;;;;;5031192;28;20200;-76
2021/12/20 10:37:50;;;;;;;24.17;14.40;;;2.50;99.90;;;;;;5022597;28;20178;-77
2021/12/20 10:40:16;;;;;;;25.53;15.40;;;2.50;99.90;;;;;;5030951;28;20666;-76
2021/12/20 10:42:43;;;;;;;27.27;15.43;;;2.60;99.90;;;;;;5013284;28;20182;-76
2021/12/20 10:45:09;;;;;;;24.50;14.90;;;2.60;99.90;;;;;;5030194;28;20652;-76
2021/12/20 10:47:35;;;;;;;26.93;14.73;;;2.60;99.90;;;;;;5032225;28;20213;-76
2021/12/20 10:50:26;;;;;;;24.47;14.90;;;2.70;99.90;;;;;;5014564;28;20185;-75
2021/12/20 10:52:53;;;;;;;24.93;14.97;;;2.70;99.90;;;;;;5006361;28;20248;-76
2021/12/20 10:55:46;;;;;;;21.17;14.37;;;2.80;99.90;;;;;;5021950;28;20203;-76
2021/12/20 10:58:16;;;;;;;23.40;15.00;;;2.80;99.90;;;;;;5020496;28;20174;-76
2021/12/20 11:00:44;;;;;;;24.77;14.50;;;2.80;99.90;;;;;;5030431;28;20176;-76
2021/12/20 11:03:24;;;;;;;22.27;14.40;;;2.80;99.90;;;;;;5011643;28;20175;-76
2021/12/20 11:11:20;;;;;;;29.20;17.03;;;3.00;99.90;;;;;;5028848;28;20301;-75
2021/12/20 11:13:46;;;;;;;28.87;16.27;;;3.10;99.90;;;;;;5011251;28;20270;-76
2021/12/20 11:16:40;;;;;;;29.37;17.63;;;3.00;99.90;;;;;;5026467;28;20672;-75
2021/12/20 11:19:21;;;;;;;27.13;14.57;;;3.30;99.90;;;;;;5011336;28;20591;-76
2021/12/20 11:21:51;;;;;;;26.03;14.93;;;3.20;99.90;;;;;;5031941;28;20186;-76
2021/12/20 11:24:28;;;;;;;28.73;15.90;;;3.20;99.90;;;;;;5029688;28;20177;-76
2021/12/20 11:26:56;;;;;;;34.67;16.33;;;3.20;99.90;;;;;;5031688;28;20294;-75
2021/12/20 11:29:22;;;;;;;32.60;18.27;;;3.30;99.90;;;;;;5029657;28;20195;-75
2021/12/20 11:31:50;;;;;;;31.60;17.83;;;3.30;99.90;;;;;;5015076;28;20184;-76
2021/12/20 11:34:16;;;;;;;35.83;18.77;;;3.40;99.90;;;;;;5030871;28;20608;-75
2021/12/20 11:36:42;;;;;;;28.50;16.93;;;3.40;99.90;;;;;;5029824;28;20323;-77
2021/12/20 11:39:09;;;;;;;23.57;13.97;;;3.50;99.90;;;;;;5011051;28;20177;-76
2021/12/20 11:41:35;;;;;;;26.73;15.20;;;3.50;99.90;;;;;;5021717;28;20268;-75
2021/12/20 11:44:04;;;;;;;23.80;14.80;;;3.50;99.90;;;;;;5011356;28;20188;-76
2021/12/20 11:46:39;;;;;;;23.93;14.47;;;3.50;99.90;;;;;;5031479;28;20223;-76
2021/12/20 11:49:05;;;;;;;26.80;14.93;;;3.50;99.90;;;;;;5031793;28;20201;-76
2021/12/20 11:51:57;;;;;;;28.63;15.47;;;3.60;99.90;;;;;;5031433;28;20175;-75
2021/12/20 11:54:51;;;;;;;27.43;14.73;;;3.60;99.90;;;;;;5026864;28;20182;-76
2021/12/20 11:57:38;;;;;;;19.73;13.53;;;4.10;99.90;;;;;;5005405;28;20741;-76
2021/12/20 12:00:18;;;;;;;25.83;14.13;;;3.70;99.90;;;;;;5017593;28;20182;-76
2021/12/20 12:02:45;;;;;;;25.57;14.47;;;3.80;99.90;;;;;;5022027;28;20652;-75
2021/12/20 12:05:17;;;;;;;25.53;14.20;;;3.80;99.90;;;;;;5020082;28;20205;-75
2021/12/20 12:07:45;;;;;;;24.03;14.57;;;3.70;99.90;;;;;;5022870;28;20546;-74
2021/12/20 12:10:15;;;;;;;29.40;15.60;;;3.70;99.90;;;;;;5020779;28;20176;-74
2021/12/20 12:12:43;;;;;;;26.07;15.83;;;3.70;99.90;;;;;;5035157;28;20178;-75
2021/12/20 12:15:14;;;;;;;23.43;13.10;;;3.80;99.90;;;;;;5030696;28;20199;-76
2021/12/20 12:17:57;;;;;;;19.60;12.70;;;3.80;99.90;;;;;;5033852;28;20190;-75
2021/12/20 12:20:37;;;;;;;21.07;12.23;;;3.90;99.90;;;;;;5034200;28;20235;-76
2021/12/20 12:23:17;;;;;;;20.27;13.20;;;4.00;99.90;;;;;;5027244;28;20267;-76
2021/12/20 12:25:58;;;;;;;23.73;14.00;;;4.00;99.90;;;;;;5027402;28;20645;-75
2021/12/20 12:28:27;;;;;;;21.50;13.43;;;4.10;99.90;;;;;;5030642;28;20292;-74
2021/12/20 12:31:11;;;;;;;21.30;12.77;;;4.00;99.90;;;;;;5021156;28;20171;-76
2021/12/20 12:33:39;;;;;;;20.30;12.97;;;3.90;99.90;;;;;;5025107;28;20182;-74
2021/12/20 12:36:22;;;;;;;22.63;12.97;;;4.00;99.90;;;;;;5033618;28;20217;-75
2021/12/20 12:38:48;;;;;;;19.23;12.33;;;4.10;99.90;;;;;;5032167;28;20227;-75
2021/12/20 12:41:44;;;;;;;19.47;12.97;;;4.10;99.90;;;;;;5034593;28;20266;-75
2021/12/20 12:44:15;;;;;;;20.63;11.93;;;4.00;99.90;;;;;;5023064;28;20191;-76
2021/12/20 12:46:42;;;;;;;21.83;12.00;;;4.00;99.90;;;;;;5029281;28;20205;-75
2021/12/20 12:49:22;;;;;;;18.17;12.00;;;4.10;99.90;;;;;;5014533;28;20175;-76
2021/12/20 12:51:51;;;;;;;22.50;13.17;;;4.20;99.90;;;;;;5016657;28;20191;-75
2021/12/20 12:54:37;;;;;;;23.83;13.83;;;4.30;99.90;;;;;;5035140;28;20292;-75
2021/12/20 12:57:09;;;;;;;18.93;12.90;;;4.40;99.90;;;;;;5033618;28;20303;-76
2021/12/20 12:59:37;;;;;;;27.00;12.93;;;5.20;99.90;;;;;;5019007;28;20184;-75
2021/12/20 13:02:11;;;;;;;25.13;13.87;;;4.40;99.90;;;;;;5026821;28;20575;-75
2021/12/20 13:04:52;;;;;;;20.97;12.50;;;4.40;99.90;;;;;;5034459;28;20210;-75
2021/12/20 13:07:22;;;;;;;24.13;13.27;;;4.50;99.90;;;;;;5004574;28;20287;-75
2021/12/20 13:09:49;;;;;;;22.07;13.10;;;4.50;99.90;;;;;;4997311;28;20552;-75
2021/12/20 13:12:35;;;;;;;15.13;11.33;;;4.50;99.90;;;;;;5026481;28;20206;-75
2021/12/20 13:15:09;;;;;;;22.57;12.47;;;4.40;99.90;;;;;;5026319;28;20687;-75
2021/12/20 13:17:39;;;;;;;17.30;11.90;;;4.40;99.90;;;;;;4997960;28;20711;-76
2021/12/20 13:20:19;;;;;;;14.63;10.30;;;4.40;99.90;;;;;;5018806;28;20179;-75
2021/12/20 13:23:13;;;;;;;15.30;8.10;;;4.40;99.90;;;;;;5021231;28;20190;-75
2021/12/20 13:25:44;;;;;;;10.47;8.00;;;4.40;99.90;;;;;;5018024;28;20287;-74
2021/12/20 13:28:19;;;;;;;10.60;8.07;;;4.30;99.90;;;;;;5034137;28;20700;-74
2021/12/20 13:30:52;;;;;;;9.70;6.40;;;4.30;99.90;;;;;;5033797;28;20201;-74
2021/12/20 13:33:20;;;;;;;8.10;6.60;;;4.30;99.90;;;;;;5033773;28;20177;-76
2021/12/20 13:35:46;;;;;;;11.60;8.00;;;4.20;99.90;;;;;;5034283;28;20198;-75
2021/12/20 13:38:45;;;;;;;37.73;17.03;;;4.20;99.90;;;;;;5025639;28;20183;-75
2021/12/20 13:41:20;;;;;;;44.40;24.93;;;4.20;99.90;;;;;;5014883;28;20186;-75
2021/12/20 13:43:54;;;;;;;31.33;21.57;;;4.10;99.90;;;;;;5027585;28;20184;-75
2021/12/20 13:46:37;;;;;;;9.30;6.70;;;4.10;99.90;;;;;;5010827;28;20747;-74
2021/12/20 13:49:10;;;;;;;8.77;6.87;;;4.00;99.90;;;;;;5026510;28;20654;-76
2021/12/20 13:51:54;;;;;;;10.23;7.13;;;4.00;99.90;;;;;;5020208;28;20304;-75
2021/12/20 13:54:33;;;;;;;10.63;6.63;;;4.00;99.90;;;;;;5023625;28;20206;-75
2021/12/20 13:56:58;;;;;;;8.47;5.50;;;4.00;99.90;;;;;;5032261;28;20177;-75
2021/12/20 13:59:33;;;;;;;7.63;6.53;;;4.00;99.90;;;;;;5034492;28;20176;-74
2021/12/20 14:02:00;;;;;;;10.10;6.60;;;4.10;99.90;;;;;;5028707;28;20210;-75
2021/12/20 14:04:41;;;;;;;10.07;6.67;;;4.10;99.90;;;;;;5022149;28;20183;-75
2021/12/20 14:07:39;;;;;;;8.37;6.10;;;4.00;99.90;;;;;;5021560;28;20202;-75
2021/12/20 14:10:15;;;;;;;11.03;7.00;;;4.00;99.90;;;;;;5013888;28;20167;-72
2021/12/20 14:12:45;;;;;;;8.23;6.63;;;3.90;99.90;;;;;;5024339;28;20172;-70
2021/12/20 14:15:33;;;;;;;10.50;5.87;;;3.90;99.90;;;;;;5016697;28;20291;-73
2021/12/20 14:18:01;;;;;;;6.33;4.53;;;4.00;99.90;;;;;;5023130;28;20649;-71
2021/12/20 14:20:50;;;;;;;9.07;5.90;;;4.00;99.90;;;;;;5014782;28;20211;-73
2021/12/20 14:23:34;;;;;;;7.23;4.97;;;4.00;99.90;;;;;;5010666;28;20181;-72
2021/12/20 14:26:18;;;;;;;11.83;6.33;;;4.00;99.90;;;;;;5015629;28;20257;-73
2021/12/20 14:29:05;;;;;;;6.40;4.93;;;4.00;99.90;;;;;;5012040;28;20233;-75
2021/12/20 14:31:39;;;;;;;6.20;4.23;;;4.00;99.90;;;;;;5025372;28;20179;-76
2021/12/20 14:34:09;;;;;;;6.63;5.47;;;4.10;99.90;;;;;;5015586;28;20250;-75
2021/12/20 14:36:38;;;;;;;4.83;4.17;;;4.10;99.90;;;;;;5032873;28;20201;-74
2021/12/20 14:39:11;;;;;;;5.87;3.93;;;4.20;99.90;;;;;;5016059;28;20175;-75
2021/12/20 14:41:39;;;;;;;4.43;3.70;;;4.20;99.90;;;;;;5025295;28;20199;-75
2021/12/20 14:44:41;;;;;;;5.93;3.20;;;4.20;99.90;;;;;;5029009;28;20619;-75
2021/12/20 14:49:55;;;;;;;5.47;3.73;;;4.10;99.90;;;;;;5029190;28;20189;-74
2021/12/20 14:52:27;;;;;;;9.67;4.80;;;4.10;99.90;;;;;;5029338;28;20175;-74
2021/12/20 14:54:55;;;;;;;6.67;3.63;;;4.10;99.90;;;;;;5030514;28;20556;-75
2021/12/20 14:57:30;;;;;;;18.60;7.73;;;4.00;99.90;;;;;;5029035;28;20710;-74
2021/12/20 14:59:57;;;;;;;13.23;6.53;;;3.90;99.90;;;;;;5032672;28;20685;-75
2021/12/20 15:02:32;;;;;;;14.40;6.57;;;4.00;99.90;;;;;;5030047;28;20231;-75
2021/12/20 15:05:00;;;;;;;6.97;4.70;;;3.90;99.90;;;;;;5008494;28;20202;-76
2021/12/20 15:07:26;;;;;;;15.47;5.17;;;3.80;99.90;;;;;;5031499;28;20973;-75
2021/12/20 15:09:51;;;;;;;8.50;5.00;;;3.80;99.90;;;;;;5030518;28;20643;-75
2021/12/20 15:12:17;;;;;;;10.00;5.30;;;3.80;99.90;;;;;;5032090;28;20171;-75
2021/12/20 15:14:43;;;;;;;7.10;5.07;;;3.70;99.90;;;;;;5013307;28;20204;-76
2021/12/20 15:17:08;;;;;;;12.57;6.57;;;3.60;99.90;;;;;;5032465;28;20183;-76
2021/12/20 15:19:34;;;;;;;8.60;5.40;;;3.60;99.90;;;;;;5030031;28;20184;-76
2021/12/20 15:22:00;;;;;;;4.87;4.30;;;3.70;99.90;;;;;;5032143;28;20226;-76